sensor_id;sensor_type;location;lat;lon;timestamp;P1;durP1;ratioP1;P2;durP2;ratioP2
40871;SDS011;26591;43.264;26.940;2022-12-07T00:01:36;46.85;;;25.65;;
40871;SDS011;26591;43.264;26.940;2022-12-07T00:04:06;51.35;;;27.50;;
40871;SDS011;26591;43.264;26.940;2022-12-07T00:06:35;45.05;;;25.77;;
40871;SDS011;26591;43.264;26.940;2022-12-07T00:09:06;44.53;;;26.38;;
40871;SDS011;26591;43.264;26.940;2022-12-07T00:11:35;48.75;;;25.85;;
40871;SDS011;26591;43.264;26.940;2022-12-07T00:14:02;49.92;;;28.27;;
40871;SDS011;26591;43.264;26.940;2022-12-07T00:16:31;55.95;;;28.08;;
40871;SDS011;26591;43.264;26.940;2022-12-07T00:18:58;58.42;;;30.48;;
40871;SDS011;26591;43.264;26.940;2022-12-07T00:21:29;63.53;;;31.83;;
40871;SDS011;26591;43.264;26.940;2022-12-07T00:23:56;44.22;;;25.48;;
40871;SDS011;26591;43.264;26.940;2022-12-07T00:26:23;52.80;;;29.27;;
40871;SDS011;26591;43.264;26.940;2022-12-07T00:28:59;55.42;;;29.05;;
40871;SDS011;26591;43.264;26.940;2022-12-07T00:31:27;41.53;;;23.60;;
40871;SDS011;26591;43.264;26.940;2022-12-07T00:33:55;38.22;;;21.00;;
40871;SDS011;26591;43.264;26.940;2022-12-07T00:36:21;33.35;;;19.17;;
40871;SDS011;26591;43.264;26.940;2022-12-07T00:38:48;33.83;;;18.13;;
40871;SDS011;26591;43.264;26.940;2022-12-07T00:41:15;32.53;;;18.48;;
40871;SDS011;26591;43.264;26.940;2022-12-07T00:43:43;32.35;;;18.38;;
40871;SDS011;26591;43.264;26.940;2022-12-07T00:46:09;30.83;;;17.50;;
40871;SDS011;26591;43.264;26.940;2022-12-07T00:48:36;27.30;;;16.75;;
40871;SDS011;26591;43.264;26.940;2022-12-07T00:51:02;26.10;;;16.60;;
40871;SDS011;26591;43.264;26.940;2022-12-07T00:53:28;28.98;;;15.13;;
40871;SDS011;26591;43.264;26.940;2022-12-07T00:55:54;36.03;;;19.90;;
40871;SDS011;26591;43.264;26.940;2022-12-07T00:58:23;116.70;;;45.35;;
40871;SDS011;26591;43.264;26.940;2022-12-07T01:00:49;74.43;;;33.92;;
40871;SDS011;26591;43.264;26.940;2022-12-07T01:03:15;55.80;;;26.50;;
40871;SDS011;26591;43.264;26.940;2022-12-07T01:05:52;34.38;;;18.30;;
40871;SDS011;26591;43.264;26.940;2022-12-07T01:08:19;37.75;;;18.98;;
40871;SDS011;26591;43.264;26.940;2022-12-07T01:10:46;42.03;;;21.27;;
40871;SDS011;26591;43.264;26.940;2022-12-07T01:13:12;26.75;;;16.55;;
40871;SDS011;26591;43.264;26.940;2022-12-07T01:15:41;26.52;;;15.15;;
40871;SDS011;26591;43.264;26.940;2022-12-07T01:18:08;23.33;;;13.82;;
40871;SDS011;26591;43.264;26.940;2022-12-07T01:20:34;23.77;;;13.55;;
40871;SDS011;26591;43.264;26.940;2022-12-07T01:23:00;28.40;;;16.85;;
40871;SDS011;26591;43.264;26.940;2022-12-07T01:25:25;26.02;;;15.52;;
40871;SDS011;26591;43.264;26.940;2022-12-07T01:27:51;30.67;;;17.65;;
40871;SDS011;26591;43.264;26.940;2022-12-07T01:30:16;32.05;;;19.45;;
40871;SDS011;26591;43.264;26.940;2022-12-07T01:32:42;35.10;;;17.77;;
40871;SDS011;26591;43.264;26.940;2022-12-07T01:35:07;44.85;;;24.23;;
40871;SDS011;26591;43.264;26.940;2022-12-07T01:37:37;51.83;;;31.85;;
40871;SDS011;26591;43.264;26.940;2022-12-07T01:40:04;37.70;;;24.42;;
40871;SDS011;26591;43.264;26.940;2022-12-07T01:42:31;35.65;;;23.70;;
40871;SDS011;26591;43.264;26.940;2022-12-07T01:51:21;29.75;;;14.48;;
40871;SDS011;26591;43.264;26.940;2022-12-07T01:53:47;23.05;;;13.80;;
40871;SDS011;26591;43.264;26.940;2022-12-07T01:56:16;27.27;;;15.75;;
40871;SDS011;26591;43.264;26.940;2022-12-07T01:58:44;30.73;;;16.33;;
40871;SDS011;26591;43.264;26.940;2022-12-07T02:01:10;24.42;;;15.32;;
40871;SDS011;26591;43.264;26.940;2022-12-07T02:03:37;25.88;;;15.93;;
40871;SDS011;26591;43.264;26.940;2022-12-07T02:06:05;26.98;;;15.98;;
40871;SDS011;26591;43.264;26.940;2022-12-07T02:08:33;34.40;;;17.58;;
40871;SDS011;26591;43.264;26.940;2022-12-07T02:11:02;30.77;;;16.63;;
40871;SDS011;26591;43.264;26.940;2022-12-07T02:13:31;34.88;;;17.23;;
40871;SDS011;26591;43.264;26.940;2022-12-07T02:26:35;51.03;;;32.03;;
40871;SDS011;26591;43.264;26.940;2022-12-07T02:34:46;30.83;;;17.05;;
40871;SDS011;26591;43.264;26.940;2022-12-07T02:37:21;29.20;;;16.27;;
40871;SDS011;26591;43.264;26.940;2022-12-07T02:40:00;27.35;;;17.77;;
40871;SDS011;26591;43.264;26.940;2022-12-07T02:42:40;37.65;;;20.73;;
40871;SDS011;26591;43.264;26.940;2022-12-07T02:45:12;31.10;;;20.45;;
40871;SDS011;26591;43.264;26.940;2022-12-07T02:47:41;34.28;;;21.13;;
40871;SDS011;26591;43.264;26.940;2022-12-07T02:50:08;36.33;;;20.60;;
40871;SDS011;26591;43.264;26.940;2022-12-07T02:52:34;37.55;;;22.20;;
40871;SDS011;26591;43.264;26.940;2022-12-07T02:55:00;37.17;;;21.10;;
40871;SDS011;26591;43.264;26.940;2022-12-07T02:57:39;35.60;;;19.80;;
40871;SDS011;26591;43.264;26.940;2022-12-07T03:00:16;37.30;;;20.38;;
40871;SDS011;26591;43.264;26.940;2022-12-07T03:02:47;33.65;;;21.10;;
40871;SDS011;26591;43.264;26.940;2022-12-07T03:05:25;33.50;;;20.35;;
40871;SDS011;26591;43.264;26.940;2022-12-07T03:11:08;36.88;;;19.85;;
40871;SDS011;26591;43.264;26.940;2022-12-07T03:16:38;39.38;;;21.90;;
40871;SDS011;26591;43.264;26.940;2022-12-07T03:19:10;36.55;;;19.75;;
40871;SDS011;26591;43.264;26.940;2022-12-07T03:21:40;37.70;;;21.60;;
40871;SDS011;26591;43.264;26.940;2022-12-07T03:24:29;38.78;;;23.38;;
40871;SDS011;26591;43.264;26.940;2022-12-07T03:27:03;35.25;;;22.35;;
40871;SDS011;26591;43.264;26.940;2022-12-07T03:29:48;36.35;;;21.98;;
40871;SDS011;26591;43.264;26.940;2022-12-07T03:32:25;37.63;;;21.65;;
40871;SDS011;26591;43.264;26.940;2022-12-07T03:35:03;31.95;;;19.67;;
40871;SDS011;26591;43.264;26.940;2022-12-07T03:40:26;39.92;;;22.90;;
40871;SDS011;26591;43.264;26.940;2022-12-07T03:42:59;42.58;;;29.40;;
40871;SDS011;26591;43.264;26.940;2022-12-07T03:45:36;39.28;;;24.13;;
40871;SDS011;26591;43.264;26.940;2022-12-07T03:48:07;45.08;;;24.90;;
40871;SDS011;26591;43.264;26.940;2022-12-07T03:53:40;31.88;;;17.20;;
40871;SDS011;26591;43.264;26.940;2022-12-07T03:56:12;34.30;;;18.98;;
40871;SDS011;26591;43.264;26.940;2022-12-07T03:58:39;33.05;;;17.75;;
40871;SDS011;26591;43.264;26.940;2022-12-07T04:01:06;34.63;;;18.08;;
40871;SDS011;26591;43.264;26.940;2022-12-07T04:03:32;29.58;;;17.10;;
40871;SDS011;26591;43.264;26.940;2022-12-07T04:05:57;31.30;;;17.65;;
40871;SDS011;26591;43.264;26.940;2022-12-07T04:08:24;34.90;;;19.17;;
40871;SDS011;26591;43.264;26.940;2022-12-07T04:10:50;33.70;;;17.50;;
40871;SDS011;26591;43.264;26.940;2022-12-07T04:13:15;29.05;;;16.17;;
40871;SDS011;26591;43.264;26.940;2022-12-07T04:15:41;32.17;;;16.63;;
40871;SDS011;26591;43.264;26.940;2022-12-07T04:18:06;28.00;;;16.45;;
40871;SDS011;26591;43.264;26.940;2022-12-07T04:20:32;29.50;;;18.15;;
40871;SDS011;26591;43.264;26.940;2022-12-07T04:22:58;26.80;;;16.52;;
40871;SDS011;26591;43.264;26.940;2022-12-07T04:25:23;35.33;;;22.10;;
40871;SDS011;26591;43.264;26.940;2022-12-07T04:27:49;36.50;;;21.95;;
40871;SDS011;26591;43.264;26.940;2022-12-07T04:30:14;36.00;;;19.50;;
40871;SDS011;26591;43.264;26.940;2022-12-07T04:32:40;31.63;;;18.80;;
40871;SDS011;26591;43.264;26.940;2022-12-07T04:35:06;34.38;;;22.55;;
40871;SDS011;26591;43.264;26.940;2022-12-07T04:37:32;38.97;;;23.00;;
40871;SDS011;26591;43.264;26.940;2022-12-07T04:39:57;46.30;;;27.42;;
40871;SDS011;26591;43.264;26.940;2022-12-07T04:42:23;33.22;;;21.25;;
40871;SDS011;26591;43.264;26.940;2022-12-07T04:44:48;33.47;;;21.30;;
40871;SDS011;26591;43.264;26.940;2022-12-07T04:47:14;40.00;;;21.92;;
40871;SDS011;26591;43.264;26.940;2022-12-07T04:49:39;48.67;;;26.48;;
40871;SDS011;26591;43.264;26.940;2022-12-07T04:52:05;40.80;;;22.80;;
40871;SDS011;26591;43.264;26.940;2022-12-07T04:54:30;37.45;;;22.45;;
40871;SDS011;26591;43.264;26.940;2022-12-07T04:56:56;38.05;;;21.67;;
40871;SDS011;26591;43.264;26.940;2022-12-07T04:59:21;32.70;;;19.40;;
40871;SDS011;26591;43.264;26.940;2022-12-07T05:01:47;37.03;;;21.55;;
40871;SDS011;26591;43.264;26.940;2022-12-07T05:04:12;32.15;;;19.92;;
40871;SDS011;26591;43.264;26.940;2022-12-07T05:06:38;37.90;;;21.63;;
40871;SDS011;26591;43.264;26.940;2022-12-07T05:09:03;236.73;;;28.13;;
40871;SDS011;26591;43.264;26.940;2022-12-07T05:11:30;292.83;;;32.83;;
40871;SDS011;26591;43.264;26.940;2022-12-07T05:14:22;94.47;;;28.75;;
40871;SDS011;26591;43.264;26.940;2022-12-07T05:16:49;84.63;;;27.88;;
40871;SDS011;26591;43.264;26.940;2022-12-07T05:19:15;525.00;;;36.33;;
40871;SDS011;26591;43.264;26.940;2022-12-07T05:21:41;404.05;;;26.98;;
40871;SDS011;26591;43.264;26.940;2022-12-07T05:24:07;604.38;;;30.45;;
40871;SDS011;26591;43.264;26.940;2022-12-07T05:26:35;767.53;;;32.40;;
40871;SDS011;26591;43.264;26.940;2022-12-07T05:29:01;907.95;;;35.90;;
40871;SDS011;26591;43.264;26.940;2022-12-07T05:31:26;677.00;;;34.08;;
40871;SDS011;26591;43.264;26.940;2022-12-07T05:33:53;461.17;;;24.88;;
40871;SDS011;26591;43.264;26.940;2022-12-07T05:36:18;588.03;;;28.42;;
40871;SDS011;26591;43.264;26.940;2022-12-07T05:38:44;188.18;;;26.02;;
40871;SDS011;26591;43.264;26.940;2022-12-07T05:41:11;106.07;;;25.27;;
40871;SDS011;26591;43.264;26.940;2022-12-07T05:43:58;47.13;;;24.70;;
40871;SDS011;26591;43.264;26.940;2022-12-07T05:46:23;48.45;;;27.05;;
40871;SDS011;26591;43.264;26.940;2022-12-07T05:48:49;75.57;;;31.52;;
40871;SDS011;26591;43.264;26.940;2022-12-07T05:51:14;54.72;;;27.40;;
40871;SDS011;26591;43.264;26.940;2022-12-07T05:53:40;69.68;;;29.13;;
40871;SDS011;26591;43.264;26.940;2022-12-07T05:56:06;55.92;;;26.52;;
40871;SDS011;26591;43.264;26.940;2022-12-07T05:58:31;63.63;;;31.73;;
40871;SDS011;26591;43.264;26.940;2022-12-07T06:01:16;73.15;;;32.03;;
40871;SDS011;26591;43.264;26.940;2022-12-07T06:03:44;66.78;;;33.95;;
40871;SDS011;26591;43.264;26.940;2022-12-07T06:06:10;57.38;;;28.98;;
40871;SDS011;26591;43.264;26.940;2022-12-07T06:08:36;152.73;;;28.63;;
40871;SDS011;26591;43.264;26.940;2022-12-07T06:11:01;61.80;;;28.60;;
40871;SDS011;26591;43.264;26.940;2022-12-07T06:13:46;77.07;;;36.70;;
40871;SDS011;26591;43.264;26.940;2022-12-07T06:16:11;91.20;;;44.20;;
40871;SDS011;26591;43.264;26.940;2022-12-07T06:18:37;93.38;;;40.92;;
40871;SDS011;26591;43.264;26.940;2022-12-07T06:21:02;82.38;;;39.13;;
40871;SDS011;26591;43.264;26.940;2022-12-07T06:23:46;97.90;;;40.22;;
40871;SDS011;26591;43.264;26.940;2022-12-07T06:26:13;87.15;;;42.45;;
40871;SDS011;26591;43.264;26.940;2022-12-07T06:28:39;86.85;;;40.03;;
40871;SDS011;26591;43.264;26.940;2022-12-07T06:31:05;81.80;;;36.72;;
40871;SDS011;26591;43.264;26.940;2022-12-07T06:33:31;83.03;;;37.10;;
40871;SDS011;26591;43.264;26.940;2022-12-07T06:35:56;84.60;;;39.13;;
40871;SDS011;26591;43.264;26.940;2022-12-07T06:38:22;90.10;;;40.85;;
40871;SDS011;26591;43.264;26.940;2022-12-07T06:40:47;79.95;;;40.65;;
40871;SDS011;26591;43.264;26.940;2022-12-07T06:43:13;84.45;;;43.13;;
40871;SDS011;26591;43.264;26.940;2022-12-07T06:45:39;78.97;;;39.53;;
40871;SDS011;26591;43.264;26.940;2022-12-07T06:48:05;76.68;;;38.38;;
40871;SDS011;26591;43.264;26.940;2022-12-07T06:50:31;87.57;;;43.45;;
40871;SDS011;26591;43.264;26.940;2022-12-07T06:52:56;79.10;;;38.72;;
40871;SDS011;26591;43.264;26.940;2022-12-07T06:55:22;75.82;;;38.72;;
40871;SDS011;26591;43.264;26.940;2022-12-07T06:57:47;79.13;;;42.15;;
40871;SDS011;26591;43.264;26.940;2022-12-07T07:00:13;71.72;;;39.88;;
40871;SDS011;26591;43.264;26.940;2022-12-07T07:02:39;68.55;;;38.50;;
40871;SDS011;26591;43.264;26.940;2022-12-07T07:05:04;86.75;;;45.70;;
40871;SDS011;26591;43.264;26.940;2022-12-07T07:07:30;115.30;;;56.80;;
40871;SDS011;26591;43.264;26.940;2022-12-07T07:09:55;88.15;;;46.05;;
40871;SDS011;26591;43.264;26.940;2022-12-07T07:12:21;91.32;;;46.42;;
40871;SDS011;26591;43.264;26.940;2022-12-07T07:14:46;81.55;;;43.55;;
40871;SDS011;26591;43.264;26.940;2022-12-07T07:17:12;75.43;;;40.53;;
40871;SDS011;26591;43.264;26.940;2022-12-07T07:19:38;89.63;;;47.50;;
40871;SDS011;26591;43.264;26.940;2022-12-07T07:22:04;85.85;;;42.15;;
40871;SDS011;26591;43.264;26.940;2022-12-07T07:24:29;90.60;;;44.88;;
40871;SDS011;26591;43.264;26.940;2022-12-07T07:26:57;64.68;;;36.58;;
40871;SDS011;26591;43.264;26.940;2022-12-07T07:29:23;68.40;;;38.42;;
40871;SDS011;26591;43.264;26.940;2022-12-07T07:31:48;62.63;;;35.78;;
40871;SDS011;26591;43.264;26.940;2022-12-07T07:34:14;74.80;;;42.60;;
40871;SDS011;26591;43.264;26.940;2022-12-07T07:36:39;69.20;;;35.53;;
40871;SDS011;26591;43.264;26.940;2022-12-07T07:39:05;59.70;;;34.13;;
40871;SDS011;26591;43.264;26.940;2022-12-07T07:41:31;54.78;;;32.65;;
40871;SDS011;26591;43.264;26.940;2022-12-07T07:43:56;65.65;;;36.70;;
40871;SDS011;26591;43.264;26.940;2022-12-07T07:46:22;60.28;;;33.47;;
40871;SDS011;26591;43.264;26.940;2022-12-07T07:48:47;69.53;;;37.85;;
40871;SDS011;26591;43.264;26.940;2022-12-07T07:51:13;64.78;;;38.00;;
40871;SDS011;26591;43.264;26.940;2022-12-07T07:53:41;62.80;;;34.72;;
40871;SDS011;26591;43.264;26.940;2022-12-07T07:56:07;69.35;;;37.33;;
40871;SDS011;26591;43.264;26.940;2022-12-07T07:58:32;61.92;;;35.97;;
40871;SDS011;26591;43.264;26.940;2022-12-07T08:01:03;68.53;;;39.13;;
40871;SDS011;26591;43.264;26.940;2022-12-07T08:03:29;63.17;;;37.33;;
40871;SDS011;26591;43.264;26.940;2022-12-07T08:05:54;63.22;;;37.90;;
40871;SDS011;26591;43.264;26.940;2022-12-07T08:08:21;65.80;;;37.72;;
40871;SDS011;26591;43.264;26.940;2022-12-07T08:10:46;64.88;;;37.78;;
40871;SDS011;26591;43.264;26.940;2022-12-07T08:13:12;63.13;;;37.53;;
40871;SDS011;26591;43.264;26.940;2022-12-07T08:15:41;64.07;;;35.95;;
40871;SDS011;26591;43.264;26.940;2022-12-07T08:18:08;62.97;;;35.83;;
40871;SDS011;26591;43.264;26.940;2022-12-07T08:20:34;68.90;;;38.63;;
40871;SDS011;26591;43.264;26.940;2022-12-07T08:23:00;58.65;;;36.70;;
40871;SDS011;26591;43.264;26.940;2022-12-07T08:25:26;63.30;;;40.42;;
40871;SDS011;26591;43.264;26.940;2022-12-07T08:27:52;54.75;;;32.08;;
40871;SDS011;26591;43.264;26.940;2022-12-07T08:30:19;43.10;;;28.10;;
40871;SDS011;26591;43.264;26.940;2022-12-07T08:32:45;63.78;;;35.03;;
40871;SDS011;26591;43.264;26.940;2022-12-07T08:35:11;56.92;;;30.05;;
40871;SDS011;26591;43.264;26.940;2022-12-07T08:37:38;48.35;;;29.00;;
40871;SDS011;26591;43.264;26.940;2022-12-07T08:40:04;52.97;;;30.40;;
40871;SDS011;26591;43.264;26.940;2022-12-07T08:42:31;47.55;;;31.45;;
40871;SDS011;26591;43.264;26.940;2022-12-07T08:45:06;49.38;;;29.83;;
40871;SDS011;26591;43.264;26.940;2022-12-07T08:47:37;51.33;;;30.70;;
40871;SDS011;26591;43.264;26.940;2022-12-07T08:50:06;54.75;;;30.98;;
40871;SDS011;26591;43.264;26.940;2022-12-07T08:52:33;51.08;;;32.53;;
40871;SDS011;26591;43.264;26.940;2022-12-07T08:55:00;54.53;;;31.75;;
40871;SDS011;26591;43.264;26.940;2022-12-07T08:57:28;51.53;;;32.53;;
40871;SDS011;26591;43.264;26.940;2022-12-07T08:59:54;51.03;;;32.40;;
40871;SDS011;26591;43.264;26.940;2022-12-07T09:02:20;51.20;;;32.72;;
40871;SDS011;26591;43.264;26.940;2022-12-07T09:04:46;46.97;;;30.27;;
40871;SDS011;26591;43.264;26.940;2022-12-07T09:07:11;48.05;;;31.55;;
40871;SDS011;26591;43.264;26.940;2022-12-07T09:09:37;49.53;;;29.50;;
40871;SDS011;26591;43.264;26.940;2022-12-07T09:12:03;53.50;;;30.13;;
40871;SDS011;26591;43.264;26.940;2022-12-07T09:14:28;46.28;;;28.90;;
40871;SDS011;26591;43.264;26.940;2022-12-07T09:16:54;39.83;;;23.50;;
40871;SDS011;26591;43.264;26.940;2022-12-07T09:19:19;42.15;;;24.95;;
40871;SDS011;26591;43.264;26.940;2022-12-07T09:21:45;42.83;;;23.40;;
40871;SDS011;26591;43.264;26.940;2022-12-07T09:24:11;35.92;;;21.70;;
40871;SDS011;26591;43.264;26.940;2022-12-07T09:26:37;34.92;;;20.30;;
40871;SDS011;26591;43.264;26.940;2022-12-07T09:29:05;42.50;;;20.50;;
40871;SDS011;26591;43.264;26.940;2022-12-07T09:31:30;36.90;;;20.17;;
40871;SDS011;26591;43.264;26.940;2022-12-07T09:33:57;29.15;;;17.27;;
40871;SDS011;26591;43.264;26.940;2022-12-07T09:36:24;28.02;;;15.82;;
40871;SDS011;26591;43.264;26.940;2022-12-07T09:38:50;25.83;;;15.13;;
40871;SDS011;26591;43.264;26.940;2022-12-07T09:41:15;42.90;;;19.25;;
40871;SDS011;26591;43.264;26.940;2022-12-07T09:43:41;35.28;;;18.88;;
40871;SDS011;26591;43.264;26.940;2022-12-07T09:46:08;40.28;;;19.98;;
40871;SDS011;26591;43.264;26.940;2022-12-07T09:48:39;26.80;;;16.70;;
40871;SDS011;26591;43.264;26.940;2022-12-07T09:51:20;43.63;;;22.80;;
40871;SDS011;26591;43.264;26.940;2022-12-07T09:53:47;43.50;;;22.17;;
40871;SDS011;26591;43.264;26.940;2022-12-07T09:56:14;53.55;;;22.17;;
40871;SDS011;26591;43.264;26.940;2022-12-07T09:58:41;43.05;;;23.08;;
40871;SDS011;26591;43.264;26.940;2022-12-07T10:03:34;35.30;;;19.13;;
40871;SDS011;26591;43.264;26.940;2022-12-07T10:06:02;31.77;;;16.08;;
40871;SDS011;26591;43.264;26.940;2022-12-07T10:08:30;51.30;;;22.80;;
40871;SDS011;26591;43.264;26.940;2022-12-07T10:10:56;26.23;;;15.63;;
40871;SDS011;26591;43.264;26.940;2022-12-07T10:13:36;28.52;;;15.38;;
40871;SDS011;26591;43.264;26.940;2022-12-07T10:16:04;27.83;;;15.05;;
40871;SDS011;26591;43.264;26.940;2022-12-07T10:18:40;28.88;;;16.00;;
40871;SDS011;26591;43.264;26.940;2022-12-07T10:24:02;43.08;;;18.88;;
40871;SDS011;26591;43.264;26.940;2022-12-07T10:26:35;32.03;;;17.80;;
40871;SDS011;26591;43.264;26.940;2022-12-07T10:31:56;26.17;;;16.23;;
40871;SDS011;26591;43.264;26.940;2022-12-07T10:37:18;31.92;;;20.08;;
40871;SDS011;26591;43.264;26.940;2022-12-07T10:39:53;32.65;;;19.10;;
40871;SDS011;26591;43.264;26.940;2022-12-07T10:42:24;39.42;;;20.65;;
40871;SDS011;26591;43.264;26.940;2022-12-07T10:45:04;29.00;;;19.50;;
40871;SDS011;26591;43.264;26.940;2022-12-07T11:07:27;36.90;;;20.63;;
40871;SDS011;26591;43.264;26.940;2022-12-07T11:10:16;33.60;;;21.05;;
40871;SDS011;26591;43.264;26.940;2022-12-07T11:29:17;50.00;;;20.17;;
40871;SDS011;26591;43.264;26.940;2022-12-07T11:37:36;61.72;;;21.08;;
40871;SDS011;26591;43.264;26.940;2022-12-07T11:40:04;28.75;;;15.10;;
40871;SDS011;26591;43.264;26.940;2022-12-07T11:42:45;32.13;;;16.15;;
40871;SDS011;26591;43.264;26.940;2022-12-07T11:45:22;46.05;;;17.52;;
40871;SDS011;26591;43.264;26.940;2022-12-07T12:00:46;48.50;;;17.63;;
40871;SDS011;26591;43.264;26.940;2022-12-07T12:03:24;44.75;;;16.27;;
40871;SDS011;26591;43.264;26.940;2022-12-07T12:05:58;31.75;;;13.48;;
40871;SDS011;26591;43.264;26.940;2022-12-07T12:08:27;22.23;;;12.90;;
40871;SDS011;26591;43.264;26.940;2022-12-07T12:16:58;47.28;;;17.45;;
40871;SDS011;26591;43.264;26.940;2022-12-07T12:19:19;29.17;;;15.68;;
40871;SDS011;26591;43.264;26.940;2022-12-07T12:21:55;29.08;;;15.27;;
40871;SDS011;26591;43.264;26.940;2022-12-07T12:24:26;22.45;;;13.45;;
40871;SDS011;26591;43.264;26.940;2022-12-07T12:26:57;25.83;;;15.25;;
40871;SDS011;26591;43.264;26.940;2022-12-07T12:29:34;55.97;;;19.20;;
40871;SDS011;26591;43.264;26.940;2022-12-07T12:34:57;32.95;;;16.40;;
40871;SDS011;26591;43.264;26.940;2022-12-07T12:48:02;42.88;;;15.88;;
40871;SDS011;26591;43.264;26.940;2022-12-07T12:50:48;74.78;;;26.75;;
40871;SDS011;26591;43.264;26.940;2022-12-07T12:53:15;46.38;;;19.40;;
40871;SDS011;26591;43.264;26.940;2022-12-07T13:04:00;38.75;;;17.55;;
40871;SDS011;26591;43.264;26.940;2022-12-07T13:08:53;35.63;;;19.50;;
40871;SDS011;26591;43.264;26.940;2022-12-07T13:17:09;43.30;;;19.08;;
40871;SDS011;26591;43.264;26.940;2022-12-07T13:24:59;44.40;;;20.17;;
40871;SDS011;26591;43.264;26.940;2022-12-07T13:27:35;41.75;;;21.13;;
40871;SDS011;26591;43.264;26.940;2022-12-07T13:30:09;45.13;;;18.60;;
40871;SDS011;26591;43.264;26.940;2022-12-07T13:32:40;37.47;;;19.42;;
40871;SDS011;26591;43.264;26.940;2022-12-07T13:37:53;45.70;;;22.17;;
40871;SDS011;26591;43.264;26.940;2022-12-07T13:40:19;47.20;;;22.77;;
40871;SDS011;26591;43.264;26.940;2022-12-07T13:42:46;50.38;;;22.77;;
40871;SDS011;26591;43.264;26.940;2022-12-07T13:45:31;51.80;;;23.02;;
40871;SDS011;26591;43.264;26.940;2022-12-07T13:51:14;107.80;;;30.20;;
40871;SDS011;26591;43.264;26.940;2022-12-07T13:53:46;103.40;;;30.25;;
40871;SDS011;26591;43.264;26.940;2022-12-07T13:56:25;88.03;;;31.73;;
40871;SDS011;26591;43.264;26.940;2022-12-07T13:58:53;106.55;;;32.80;;
40871;SDS011;26591;43.264;26.940;2022-12-07T14:01:19;70.78;;;34.30;;
40871;SDS011;26591;43.264;26.940;2022-12-07T14:03:45;56.55;;;30.10;;
40871;SDS011;26591;43.264;26.940;2022-12-07T14:06:18;63.47;;;27.92;;
40871;SDS011;26591;43.264;26.940;2022-12-07T14:08:45;64.25;;;26.90;;
40871;SDS011;26591;43.264;26.940;2022-12-07T14:11:28;44.85;;;24.08;;
40871;SDS011;26591;43.264;26.940;2022-12-07T14:13:59;55.13;;;22.65;;
40871;SDS011;26591;43.264;26.940;2022-12-07T14:19:20;50.13;;;25.73;;
40871;SDS011;26591;43.264;26.940;2022-12-07T14:22:06;50.38;;;26.50;;
40871;SDS011;26591;43.264;26.940;2022-12-07T14:24:41;46.75;;;25.80;;
40871;SDS011;26591;43.264;26.940;2022-12-07T14:27:16;51.70;;;29.65;;
40871;SDS011;26591;43.264;26.940;2022-12-07T14:29:45;44.83;;;26.80;;
40871;SDS011;26591;43.264;26.940;2022-12-07T14:32:21;55.10;;;32.67;;
40871;SDS011;26591;43.264;26.940;2022-12-07T14:34:54;62.00;;;35.60;;
40871;SDS011;26591;43.264;26.940;2022-12-07T14:37:24;67.97;;;36.95;;
40871;SDS011;26591;43.264;26.940;2022-12-07T14:39:50;68.95;;;33.40;;
40871;SDS011;26591;43.264;26.940;2022-12-07T14:42:15;59.78;;;33.08;;
40871;SDS011;26591;43.264;26.940;2022-12-07T14:44:42;75.38;;;40.05;;
40871;SDS011;26591;43.264;26.940;2022-12-07T14:47:11;140.73;;;60.85;;
40871;SDS011;26591;43.264;26.940;2022-12-07T14:49:36;177.60;;;75.07;;
40871;SDS011;26591;43.264;26.940;2022-12-07T14:52:02;155.40;;;65.72;;
40871;SDS011;26591;43.264;26.940;2022-12-07T14:54:30;142.63;;;58.10;;
40871;SDS011;26591;43.264;26.940;2022-12-07T14:56:57;121.90;;;49.08;;
40871;SDS011;26591;43.264;26.940;2022-12-07T14:59:23;120.40;;;59.05;;
40871;SDS011;26591;43.264;26.940;2022-12-07T15:01:49;94.30;;;46.90;;
40871;SDS011;26591;43.264;26.940;2022-12-07T15:04:14;113.97;;;61.38;;
40871;SDS011;26591;43.264;26.940;2022-12-07T15:06:40;92.75;;;51.38;;
40871;SDS011;26591;43.264;26.940;2022-12-07T15:09:08;111.28;;;60.88;;
40871;SDS011;26591;43.264;26.940;2022-12-07T15:11:36;116.70;;;60.83;;
40871;SDS011;26591;43.264;26.940;2022-12-07T15:14:01;135.60;;;60.22;;
40871;SDS011;26591;43.264;26.940;2022-12-07T15:16:33;132.50;;;62.17;;
40871;SDS011;26591;43.264;26.940;2022-12-07T15:19:02;136.32;;;73.32;;
40871;SDS011;26591;43.264;26.940;2022-12-07T15:21:28;136.85;;;80.60;;
40871;SDS011;26591;43.264;26.940;2022-12-07T15:23:53;138.90;;;72.47;;
40871;SDS011;26591;43.264;26.940;2022-12-07T15:26:19;136.75;;;75.30;;
40871;SDS011;26591;43.264;26.940;2022-12-07T15:28:44;121.90;;;77.10;;
40871;SDS011;26591;43.264;26.940;2022-12-07T15:31:13;130.50;;;80.00;;
40871;SDS011;26591;43.264;26.940;2022-12-07T15:33:40;146.10;;;82.07;;
40871;SDS011;26591;43.264;26.940;2022-12-07T15:36:06;138.93;;;80.43;;
40871;SDS011;26591;43.264;26.940;2022-12-07T15:38:31;142.73;;;75.88;;
40871;SDS011;26591;43.264;26.940;2022-12-07T15:40:57;140.77;;;79.50;;
40871;SDS011;26591;43.264;26.940;2022-12-07T15:43:22;125.70;;;72.47;;
40871;SDS011;26591;43.264;26.940;2022-12-07T15:46:07;146.02;;;86.10;;
40871;SDS011;26591;43.264;26.940;2022-12-07T15:48:32;154.57;;;93.43;;
40871;SDS011;26591;43.264;26.940;2022-12-07T15:51:05;146.45;;;88.50;;
40871;SDS011;26591;43.264;26.940;2022-12-07T15:53:31;135.68;;;83.30;;
40871;SDS011;26591;43.264;26.940;2022-12-07T15:55:58;143.38;;;78.85;;
40871;SDS011;26591;43.264;26.940;2022-12-07T15:58:24;131.70;;;75.00;;
40871;SDS011;26591;43.264;26.940;2022-12-07T16:00:50;147.63;;;82.75;;
40871;SDS011;26591;43.264;26.940;2022-12-07T16:03:15;161.68;;;88.15;;
40871;SDS011;26591;43.264;26.940;2022-12-07T16:05:41;177.85;;;101.07;;
40871;SDS011;26591;43.264;26.940;2022-12-07T16:08:06;150.30;;;91.80;;
40871;SDS011;26591;43.264;26.940;2022-12-07T16:10:32;132.25;;;75.40;;
40871;SDS011;26591;43.264;26.940;2022-12-07T16:12:58;175.90;;;100.25;;
40871;SDS011;26591;43.264;26.940;2022-12-07T16:15:23;187.23;;;110.30;;
40871;SDS011;26591;43.264;26.940;2022-12-07T16:17:50;174.38;;;109.97;;
40871;SDS011;26591;43.264;26.940;2022-12-07T16:20:16;257.42;;;153.73;;
40871;SDS011;26591;43.264;26.940;2022-12-07T16:22:42;186.45;;;114.88;;
40871;SDS011;26591;43.264;26.940;2022-12-07T16:25:07;186.20;;;116.05;;
40871;SDS011;26591;43.264;26.940;2022-12-07T16:27:33;189.00;;;117.95;;
40871;SDS011;26591;43.264;26.940;2022-12-07T16:30:00;143.85;;;87.70;;
40871;SDS011;26591;43.264;26.940;2022-12-07T16:32:25;129.45;;;73.43;;
40871;SDS011;26591;43.264;26.940;2022-12-07T16:34:50;202.00;;;124.53;;
40871;SDS011;26591;43.264;26.940;2022-12-07T16:37:16;146.63;;;87.65;;
40871;SDS011;26591;43.264;26.940;2022-12-07T16:39:41;173.85;;;107.60;;
40871;SDS011;26591;43.264;26.940;2022-12-07T16:42:07;177.38;;;107.78;;
40871;SDS011;26591;43.264;26.940;2022-12-07T16:44:32;177.15;;;103.70;;